Time;durP1;ratioP1;P1;durP2;ratioP2;P2;SDS_P1;SDS_P2;PMS_P1;PMS_P2;Temp;Humidity;BMP_temperature;BMP_pressure;BME280_temperature;BME280_humidity;BME280_pressure;Samples;Min_cycle;Max_cycle;Signal;HPM_P1;HPM_P2
2021/08/04 00:00:00;;;;;;;5.15;2.80;;;;;;;20.62;54.43;98118.97;129419;1096;114628;-82
2021/08/04 00:02:26;;;;;;;5.00;3.08;;;;;;;20.59;54.56;98112.33;129452;1096;114491;-82
2021/08/04 00:04:53;;;;;;;5.60;3.10;;;;;;;20.57;54.49;98119.34;129527;1095;22542;-82
2021/08/04 00:07:19;;;;;;;4.75;2.85;;;;;;;20.55;54.54;98113.45;129369;1097;114372;-81
2021/08/04 00:09:45;;;;;;;4.85;3.03;;;;;;;20.51;54.41;98121.63;129408;1096;114144;-82
2021/08/04 00:12:11;;;;;;;5.48;2.78;;;;;;;20.49;54.60;98117.72;129413;1096;114440;-83
2021/08/04 00:14:37;;;;;;;4.15;2.93;;;;;;;20.46;55.05;98110.24;129413;1096;114258;-80
2021/08/04 00:17:04;;;;;;;4.48;3.10;;;;;;;20.43;55.19;98114.52;129569;1096;22704;-80
2021/08/04 00:19:30;;;;;;;5.23;3.15;;;;;;;20.40;55.33;98109.83;129422;1096;113954;-81
2021/08/04 00:21:56;;;;;;;6.23;3.13;;;;;;;20.37;55.49;98099.64;129404;1096;114164;-81
2021/08/04 00:24:22;;;;;;;5.43;2.90;;;;;;;20.34;55.54;98103.91;129414;1096;114474;-81
2021/08/04 00:26:48;;;;;;;4.90;3.13;;;;;;;20.30;55.70;98091.39;129489;1096;114282;-81
2021/08/04 00:29:14;;;;;;;4.05;2.80;;;;;;;20.29;55.78;98093.34;129612;1095;22517;-82
2021/08/04 00:31:40;;;;;;;5.03;3.28;;;;;;;20.27;55.78;98098.39;129442;1096;114103;-82
2021/08/04 00:34:06;;;;;;;5.00;2.90;;;;;;;20.24;55.86;98096.44;129474;1096;114383;-82
2021/08/04 00:36:32;;;;;;;4.75;3.03;;;;;;;20.22;56.07;98092.51;129414;1096;114224;-82
2021/08/04 00:38:58;;;;;;;5.25;3.70;;;;;;;20.20;56.29;98101.09;129421;1096;114364;-82
2021/08/04 00:41:24;;;;;;;6.03;3.20;;;;;;;20.17;56.18;98101.85;129500;1096;22639;-82
2021/08/04 00:43:50;;;;;;;5.30;3.10;;;;;;;20.16;56.21;98096.75;129403;1096;113630;-83
2021/08/04 00:46:16;;;;;;;6.28;2.68;;;;;;;20.14;56.33;98096.36;129411;1097;114105;-82
2021/08/04 00:48:44;;;;;;;7.28;3.48;;;;;;;20.11;56.38;98093.20;129409;1096;114172;-82
2021/08/04 00:51:11;;;;;;;5.78;3.28;;;;;;;20.09;56.31;98090.08;129385;1095;114202;-82
2021/08/04 00:53:37;;;;;;;7.30;3.25;;;;;;;20.07;56.35;98095.13;129385;1096;114363;-82
2021/08/04 00:56:08;;;;;;;6.90;3.20;;;;;;;20.06;56.40;98090.83;129562;1096;22572;-82
2021/08/04 00:58:36;;;;;;;4.58;3.00;;;;;;;20.05;56.70;98096.69;129410;1097;113939;-82
2021/08/04 01:01:13;;;;;;;5.43;2.90;;;;;;;20.03;56.76;98093.53;129403;1096;114813;-82
2021/08/04 01:03:43;;;;;;;4.75;3.20;;;;;;;19.99;56.65;98088.03;129422;1096;114113;-82
2021/08/04 01:06:18;;;;;;;5.07;2.90;;;;;;;19.98;57.21;98083.74;129427;1096;114289;-82
2021/08/04 01:08:52;;;;;;;5.43;2.93;;;;;;;19.96;57.42;98080.59;129365;1096;114352;-82
2021/08/04 01:11:20;;;;;;;6.10;3.03;;;;;;;19.96;57.37;98082.54;129489;1096;23323;-82
2021/08/04 01:13:53;;;;;;;5.98;2.98;;;;;;;19.99;57.71;98071.64;129541;1096;113895;-82
2021/08/04 01:16:29;;;;;;;4.40;2.78;;;;;;;20.03;58.11;98071.67;129416;1096;114911;-82
2021/08/04 01:19:17;;;;;;;4.78;3.00;;;;;;;20.06;58.19;98074.43;129483;1096;114111;-82
2021/08/04 01:22:07;;;;;;;4.85;2.78;;;;;;;20.09;58.16;98075.63;129433;1096;114257;-82
2021/08/04 01:24:56;;;;;;;4.48;2.78;;;;;;;20.10;57.73;98068.99;129468;1096;114133;-82
2021/08/04 01:27:24;;;;;;;6.40;3.40;;;;;;;20.11;57.53;98067.82;129474;1096;114587;-82
2021/08/04 01:29:52;;;;;;;4.18;2.65;;;;;;;20.13;57.33;98059.26;129411;1097;114445;-82
2021/08/04 01:32:19;;;;;;;4.65;2.90;;;;;;;20.11;57.30;98065.09;129535;1095;22571;-82
2021/08/04 01:34:47;;;;;;;4.00;2.75;;;;;;;20.12;56.96;98072.12;129455;1096;113909;-82
2021/08/04 01:37:14;;;;;;;5.13;2.83;;;;;;;20.09;57.04;98061.97;129531;1094;114054;-82
2021/08/04 01:39:41;;;;;;;5.13;2.90;;;;;;;20.07;56.79;98061.55;129398;1096;114214;-82
2021/08/04 01:42:07;;;;;;;5.33;2.73;;;;;;;20.04;57.03;98057.64;129422;1096;114571;-82
2021/08/04 01:44:34;;;;;;;5.25;2.98;;;;;;;20.03;56.92;98066.20;129475;1096;114222;-82
2021/08/04 01:47:01;;;;;;;4.33;3.03;;;;;;;19.99;56.96;98062.66;129548;1096;22668;-82
2021/08/04 01:49:28;;;;;;;3.85;3.05;;;;;;;19.94;57.08;98063.02;129398;1096;114124;-82
2021/08/04 01:51:56;;;;;;;4.33;3.65;;;;;;;19.90;57.04;98073.14;129400;1096;114451;-82
2021/08/04 01:54:24;;;;;;;4.03;2.93;;;;;;;19.86;57.25;98070.38;129392;1096;114108;-83
2021/08/04 01:56:50;;;;;;;4.50;2.73;;;;;;;19.80;57.20;98064.45;129413;1096;114329;-83
2021/08/04 01:59:19;;;;;;;5.30;3.08;;;;;;;19.77;57.59;98073.43;129531;1096;22513;-83
2021/08/04 02:01:45;;;;;;;4.05;2.70;;;;;;;19.74;57.53;98073.40;129427;1096;113898;-82
2021/08/04 02:04:11;;;;;;;5.65;2.98;;;;;;;19.70;57.85;98078.83;129408;1096;114255;-82
2021/08/04 02:06:44;;;;;;;5.58;3.10;;;;;;;19.66;57.86;98077.23;129403;1097;114537;-82
2021/08/04 02:09:13;;;;;;;6.43;3.25;;;;;;;19.61;57.99;98081.06;129409;1096;114663;-82
2021/08/04 02:12:05;;;;;;;4.45;2.80;;;;;;;19.57;58.30;98077.48;129482;1095;114418;-83
2021/08/04 02:14:40;;;;;;;5.47;2.87;;;;;;;19.51;58.36;98082.52;129436;1096;114208;-83
2021/08/04 02:17:34;;;;;;;4.53;2.90;;;;;;;19.48;58.72;98080.53;129589;1096;23006;-83
2021/08/04 02:20:00;;;;;;;8.50;3.23;;;;;;;19.45;58.95;98085.95;129577;1096;22534;-83
2021/08/04 02:22:48;;;;;;;6.58;2.90;;;;;;;19.46;59.72;98082.86;129449;1096;114115;-83
2021/08/04 02:25:24;;;;;;;2.93;2.45;;;;;;;19.48;59.91;98080.53;129490;1096;114080;-82
2021/08/04 02:27:54;;;;;;;3.08;2.60;;;;;;;19.51;60.00;98095.39;129402;1097;114271;-82
2021/08/04 02:30:21;;;;;;;5.05;2.90;;;;;;;19.53;59.77;98093.05;129381;1096;114232;-82
2021/08/04 02:32:47;;;;;;;8.13;3.33;;;;;;;19.56;59.81;98095.82;129384;1096;114437;-82
2021/08/04 02:35:14;;;;;;;4.88;3.20;;;;;;;19.56;59.75;98098.55;129511;1097;23366;-82
2021/08/04 02:37:40;;;;;;;5.88;3.38;;;;;;;19.57;59.70;98091.14;129413;1096;114109;-82
2021/08/04 02:40:08;;;;;;;5.43;2.98;;;;;;;19.57;59.58;98088.41;129402;1096;114101;-82
2021/08/04 02:42:35;;;;;;;5.30;3.00;;;;;;;19.56;59.46;98082.17;129400;1096;114281;-82
2021/08/04 02:45:04;;;;;;;6.13;3.30;;;;;;;19.55;59.35;98082.55;129393;1097;114500;-82
2021/08/04 02:47:31;;;;;;;9.20;3.75;;;;;;;19.52;59.26;98075.11;129390;1096;114734;-82
2021/08/04 02:49:58;;;;;;;6.60;3.38;;;;;;;19.50;59.24;98089.14;129575;1096;23357;-82
2021/08/04 02:52:25;;;;;;;6.10;3.10;;;;;;;19.48;59.47;98091.45;129417;1097;114248;-82
2021/08/04 02:54:51;;;;;;;6.53;3.70;;;;;;;19.45;59.66;98110.53;129388;1096;114083;-82
2021/08/04 02:57:17;;;;;;;4.75;3.08;;;;;;;19.40;59.50;98155.34;129410;1096;114379;-82
2021/08/04 02:59:43;;;;;;;5.85;3.80;;;;;;;19.28;59.42;98148.19;129421;1096;114205;-82
2021/08/04 03:02:09;;;;;;;9.60;4.00;;;;;;;19.22;59.98;98137.98;129500;1097;22527;-82
2021/08/04 03:04:35;;;;;;;6.35;3.58;;;;;;;19.19;59.68;98144.97;129486;1096;113878;-82
2021/08/04 03:07:02;;;;;;;6.53;3.95;;;;;;;19.17;59.88;98144.54;129416;1096;114309;-81
2021/08/04 03:09:28;;;;;;;5.83;3.93;;;;;;;19.16;59.74;98139.47;129483;1096;114081;-80
2021/08/04 03:11:54;;;;;;;7.30;3.98;;;;;;;19.15;59.79;98132.44;129397;1096;114515;-82
2021/08/04 03:14:20;;;;;;;7.80;4.65;;;;;;;19.13;59.89;98135.52;129532;1096;22549;-82
2021/08/04 03:16:46;;;;;;;5.95;3.70;;;;;;;19.13;60.16;98144.49;129409;1096;113803;-82
2021/08/04 03:19:13;;;;;;;9.43;3.65;;;;;;;19.17;60.48;98133.63;129407;1096;114488;-82
2021/08/04 03:21:39;;;;;;;6.08;3.20;;;;;;;19.20;60.88;98121.19;129418;1097;114649;-82
2021/08/04 03:24:05;;;;;;;7.13;3.53;;;;;;;19.24;61.03;98122.80;129393;1096;114319;-82
2021/08/04 03:26:32;;;;;;;7.50;3.38;;;;;;;19.28;60.91;98115.42;129411;1096;114348;-83
2021/08/04 03:28:58;;;;;;;5.40;3.43;;;;;;;19.32;60.44;98127.17;129487;1096;22617;-83
2021/08/04 03:31:25;;;;;;;6.90;3.90;;;;;;;19.36;60.65;98133.45;129469;1095;113967;-82
2021/08/04 03:33:51;;;;;;;7.28;3.68;;;;;;;19.40;60.64;98132.72;129436;1096;114483;-82
2021/08/04 03:36:17;;;;;;;6.85;3.68;;;;;;;19.42;60.46;98135.88;129428;1096;114158;-82
2021/08/04 03:38:43;;;;;;;6.68;3.90;;;;;;;19.43;60.57;98121.84;129405;1096;114195;-82
2021/08/04 03:41:09;;;;;;;7.60;3.68;;;;;;;19.46;60.83;98123.05;129516;1097;22511;-82
2021/08/04 03:43:35;;;;;;;10.50;3.68;;;;;;;19.46;60.93;98128.51;129402;1096;113999;-82
2021/08/04 03:46:01;;;;;;;8.20;4.10;;;;;;;19.47;60.98;98119.14;129417;1097;114526;-82
2021/08/04 03:48:27;;;;;;;5.40;3.58;;;;;;;19.47;60.98;98121.88;129471;1096;114591;-82
2021/08/04 03:50:53;;;;;;;9.08;4.93;;;;;;;19.47;61.21;98122.66;129419;1096;114452;-82
2021/08/04 03:53:19;;;;;;;6.60;4.18;;;;;;;19.46;61.14;98132.02;129597;1096;22948;-82
2021/08/04 03:55:45;;;;;;;10.30;4.05;;;;;;;19.46;61.49;98140.21;129410;1096;113968;-82
2021/08/04 03:58:11;;;;;;;7.95;4.25;;;;;;;19.47;61.49;98136.31;129424;1096;114486;-82
2021/08/04 04:00:37;;;;;;;7.08;3.85;;;;;;;19.48;61.63;98129.69;129458;1096;114320;-82
2021/08/04 04:03:03;;;;;;;7.88;3.68;;;;;;;19.52;61.94;98138.70;129442;1095;114683;-82
2021/08/04 04:05:30;;;;;;;8.40;3.50;;;;;;;19.58;62.19;98147.36;129378;1096;114415;-82
2021/08/04 04:07:56;;;;;;;6.63;3.78;;;;;;;19.64;62.46;98151.34;129503;1095;23355;-82
2021/08/04 04:10:23;;;;;;;7.48;3.90;;;;;;;19.69;62.28;98153.75;129441;1096;114421;-82
2021/08/04 04:12:49;;;;;;;6.10;3.68;;;;;;;19.75;62.59;98156.92;129479;1096;114272;-82
2021/08/04 04:15:14;;;;;;;8.35;3.75;;;;;;;19.80;62.22;98165.55;129439;1095;114249;-82
2021/08/04 04:17:41;;;;;;;7.85;3.90;;;;;;;19.84;62.26;98160.12;129428;1096;114146;-82
2021/08/04 04:20:08;;;;;;;6.13;3.63;;;;;;;19.87;62.12;98153.91;129538;1095;22550;-82
2021/08/04 04:22:34;;;;;;;6.38;4.18;;;;;;;19.90;62.06;98158.63;129456;1096;114160;-82
2021/08/04 04:25:00;;;;;;;6.35;3.95;;;;;;;19.93;61.96;98157.09;129477;1094;114111;-82
2021/08/04 04:27:26;;;;;;;7.15;3.90;;;;;;;19.94;61.99;98150.47;129428;1096;114290;-82
2021/08/04 04:29:52;;;;;;;6.75;3.75;;;;;;;19.94;61.88;98143.05;129414;1096;114263;-81
2021/08/04 04:32:18;;;;;;;6.25;4.18;;;;;;;19.97;61.93;98144.25;129538;1096;23264;-81
2021/08/04 04:34:44;;;;;;;7.50;3.87;;;;;;;19.97;61.77;98145.03;129404;1097;113899;-81
2021/08/04 04:37:10;;;;;;;6.70;3.80;;;;;;;19.98;61.92;98145.81;129453;1097;114272;-81
2021/08/04 04:39:36;;;;;;;6.35;3.70;;;;;;;20.00;61.82;98138.82;129432;1096;113034;-81
2021/08/04 04:42:02;;;;;;;6.25;3.60;;;;;;;20.02;61.84;98152.88;129391;1096;114310;-81
2021/08/04 04:44:28;;;;;;;7.98;3.20;;;;;;;20.07;61.74;98138.86;129457;1096;114419;-81
2021/08/04 04:46:54;;;;;;;4.53;3.13;;;;;;;20.14;61.90;98146.34;129555;1096;22618;-82
2021/08/04 04:49:20;;;;;;;8.48;3.98;;;;;;;20.21;61.75;98149.14;129459;1096;114242;-82
2021/08/04 04:51:46;;;;;;;7.88;3.83;;;;;;;20.29;61.52;98155.45;129402;1096;114317;-82
2021/08/04 04:54:12;;;;;;;4.95;3.35;;;;;;;20.35;61.38;98153.92;129384;1097;114131;-84
2021/08/04 04:56:38;;;;;;;5.43;3.38;;;;;;;20.42;61.09;98153.19;129378;1096;115163;-83
2021/08/04 04:59:04;;;;;;;7.23;3.98;;;;;;;20.47;61.06;98153.61;129534;1097;22523;-83
2021/08/04 05:01:31;;;;;;;7.68;4.35;;;;;;;20.53;60.91;98152.13;129382;1096;114062;-83
2021/08/04 05:03:57;;;;;;;8.53;3.95;;;;;;;20.57;60.90;98158.41;129408;1096;114696;-83
2021/08/04 05:06:23;;;;;;;8.27;3.43;;;;;;;20.62;60.87;98159.22;129390;1096;114956;-86
2021/08/04 05:08:50;;;;;;;6.28;3.63;;;;;;;20.65;60.90;98164.72;129427;1097;114575;-86
2021/08/04 05:11:16;;;;;;;8.23;3.93;;;;;;;20.69;61.00;98168.26;129497;1096;22502;-88
2021/08/04 05:13:43;;;;;;;6.35;4.03;;;;;;;20.74;60.77;98161.64;129445;1097;113744;-87
2021/08/04 05:16:10;;;;;;;6.78;3.83;;;;;;;20.79;60.73;98167.55;129428;1095;114140;-87
2021/08/04 05:18:36;;;;;;;6.85;3.70;;;;;;;20.87;60.56;98170.30;129440;1097;114360;-88
2021/08/04 05:21:02;;;;;;;5.93;3.43;;;;;;;20.93;60.48;98168.79;129419;1097;114449;-87
2021/08/04 05:23:49;;;;;;;6.43;3.43;;;;;;;21.02;60.33;98169.22;129431;1097;114239;-87
2021/08/04 05:26:15;;;;;;;7.38;3.80;;;;;;;21.05;60.22;98169.23;129520;1097;22541;-87
2021/08/04 05:28:46;;;;;;;5.73;3.50;;;;;;;21.14;60.06;98168.88;129398;1097;113923;-88
2021/08/04 05:31:13;;;;;;;4.20;3.05;;;;;;;21.24;59.63;98189.28;129425;1096;116235;-87
2021/08/04 05:33:40;;;;;;;5.45;3.23;;;;;;;21.29;59.63;98186.17;129393;1095;114275;-87
2021/08/04 05:36:07;;;;;;;6.73;3.83;;;;;;;21.33;59.33;98187.77;129398;1096;115053;-88
2021/08/04 05:38:34;;;;;;;8.73;3.75;;;;;;;21.36;59.26;98202.66;129388;1096;115771;-88
2021/08/04 05:41:00;;;;;;;5.43;3.80;;;;;;;21.38;59.23;98192.13;129576;1097;22544;-87
2021/08/04 05:43:26;;;;;;;6.43;3.58;;;;;;;21.38;59.34;98205.81;129392;1097;113931;-87
2021/08/04 05:45:58;;;;;;;8.38;3.98;;;;;;;21.40;59.58;98208.16;129453;1096;114107;-87
2021/08/04 05:48:25;;;;;;;5.70;3.88;;;;;;;21.42;59.24;98212.09;129432;1096;114705;-87
2021/08/04 05:50:52;;;;;;;5.88;3.40;;;;;;;21.51;59.46;98209.77;129420;1096;114342;-88
2021/08/04 05:53:18;;;;;;;6.88;3.55;;;;;;;21.64;59.49;98196.50;129534;1097;22554;-87
2021/08/04 05:55:46;;;;;;;5.83;3.50;;;;;;;21.72;59.24;98195.34;129527;1095;113702;-87
2021/08/04 05:58:30;;;;;;;6.57;3.37;;;;;;;21.84;59.19;98183.23;129434;1097;114676;-88
2021/08/04 06:00:57;;;;;;;10.40;3.70;;;;;;;21.95;58.61;98181.30;129408;1096;114510;-87
2021/08/04 06:14:51;;;;;;;10.35;3.43;;;;;;;22.46;57.03;98177.44;128737;1093;22850;-86
2021/08/04 06:17:17;;;;;;;6.13;3.60;;;;;;;22.57;56.80;98184.88;128479;1093;22830;-83
2021/08/04 06:19:43;;;;;;;4.73;3.05;;;;;;;22.68;56.62;98171.94;128257;1096;113203;-83
2021/08/04 06:22:09;;;;;;;6.70;3.63;;;;;;;22.76;56.30;98177.02;128425;1095;113989;-83
2021/08/04 06:24:35;;;;;;;5.93;3.20;;;;;;;22.82;56.03;98160.13;128402;1095;113696;-85
2021/08/04 06:27:01;;;;;;;5.68;3.45;;;;;;;22.89;56.13;98165.61;128361;1094;114324;-81
2021/08/04 06:29:27;;;;;;;8.83;3.83;;;;;;;22.88;55.98;98161.30;128357;1094;113879;-84
2021/08/04 06:32:00;;;;;;;6.43;3.15;;;;;;;22.87;55.96;98166.02;128512;1095;23395;-90
2021/08/04 06:37:11;;;;;;;6.35;3.48;;;;;;;22.85;55.89;98160.13;125199;1096;113777;-86
2021/08/04 06:39:37;;;;;;;5.95;3.15;;;;;;;22.87;56.07;98165.20;128350;1095;113917;-85
2021/08/04 06:42:06;;;;;;;5.58;3.20;;;;;;;22.89;56.21;98160.12;128384;1095;113770;-86
2021/08/04 06:44:36;;;;;;;5.20;3.25;;;;;;;23.00;56.04;98171.89;128283;1095;114008;-86
2021/08/04 06:47:02;;;;;;;5.45;3.40;;;;;;;23.10;55.61;98173.02;128526;1095;22771;-86
2021/08/04 06:49:29;;;;;;;5.30;3.10;;;;;;;23.15;55.26;98173.41;128414;1096;113715;-85
2021/08/04 06:51:55;;;;;;;7.23;3.70;;;;;;;23.25;55.25;98172.57;128404;1095;114043;-85
2021/08/04 06:54:23;;;;;;;4.58;3.00;;;;;;;23.34;54.49;98172.14;128385;1095;113963;-86
2021/08/04 06:56:49;;;;;;;6.20;3.53;;;;;;;23.40;54.53;98186.26;128378;1095;113911;-83
2021/08/04 06:59:16;;;;;;;4.90;3.35;;;;;;;23.46;53.99;98181.90;128477;1095;22776;-84
2021/08/04 07:01:44;;;;;;;6.55;3.25;;;;;;;23.52;53.92;98180.31;128250;1096;113495;-85
2021/08/04 07:04:12;;;;;;;5.35;3.33;;;;;;;23.63;54.03;98188.52;128418;1096;114175;-85
2021/08/04 07:06:38;;;;;;;4.13;3.03;;;;;;;23.71;53.25;98190.06;128394;1096;113957;-84
2021/08/04 07:09:04;;;;;;;5.23;3.35;;;;;;;23.79;53.27;98191.59;128254;1096;112795;-85
2021/08/04 07:11:30;;;;;;;5.43;3.38;;;;;;;23.89;53.48;98187.98;128414;1096;113823;-85
2021/08/04 07:14:00;;;;;;;5.95;3.88;;;;;;;23.96;53.24;98187.94;128391;1095;22728;-84
2021/08/04 07:16:26;;;;;;;6.98;3.75;;;;;;;23.99;53.42;98191.86;128444;1096;113752;-85
2021/08/04 07:18:52;;;;;;;4.48;3.28;;;;;;;24.03;53.55;98189.86;128329;1095;113931;-85
2021/08/04 07:21:18;;;;;;;5.33;3.63;;;;;;;24.09;53.49;98196.52;128385;1096;113946;-85
2021/08/04 07:23:46;;;;;;;5.88;3.60;;;;;;;24.07;53.45;98190.63;128264;1095;113953;-84
2021/08/04 07:26:13;;;;;;;6.08;3.75;;;;;;;24.06;53.53;98193.78;128462;1096;22825;-84
2021/08/04 07:28:41;;;;;;;9.25;4.15;;;;;;;24.06;53.16;98185.53;128208;1096;112607;-84
2021/08/04 07:31:08;;;;;;;8.08;3.73;;;;;;;24.09;53.05;98182.77;128347;1096;114007;-84
2021/08/04 07:33:34;;;;;;;6.78;3.70;;;;;;;24.12;53.07;98181.16;128172;1095;114124;-84
2021/08/04 07:36:00;;;;;;;7.20;3.78;;;;;;;24.17;52.86;98181.52;128224;1096;113979;-83
2021/08/04 07:38:28;;;;;;;7.58;4.23;;;;;;;24.22;52.60;98180.30;128239;1095;113822;-87
2021/08/04 07:40:54;;;;;;;8.78;4.00;;;;;;;24.32;52.62;98186.89;128553;1095;22744;-85
2021/08/04 07:43:20;;;;;;;8.05;4.00;;;;;;;24.44;52.57;98178.17;128363;1095;113696;-86
2021/08/04 07:45:46;;;;;;;7.10;3.60;;;;;;;24.52;52.42;98192.66;128321;1095;113756;-86
2021/08/04 07:48:12;;;;;;;7.03;3.65;;;;;;;24.60;52.64;98188.64;128254;1095;114004;-84
2021/08/04 07:50:38;;;;;;;7.03;3.80;;;;;;;24.69;52.73;98180.71;128364;1096;114237;-86
2021/08/04 07:53:04;;;;;;;6.78;3.98;;;;;;;24.78;52.61;98194.77;128362;1095;22779;-86
2021/08/04 07:55:30;;;;;;;7.00;4.05;;;;;;;24.81;51.89;98199.47;128334;1095;113750;-83
2021/08/04 07:57:56;;;;;;;7.15;3.58;;;;;;;24.84;51.53;98195.13;128273;1096;113779;-83
2021/08/04 08:00:22;;;;;;;5.43;3.60;;;;;;;24.94;51.91;98206.02;128399;1095;113756;-82
2021/08/04 08:02:48;;;;;;;7.23;3.63;;;;;;;25.05;51.77;98210.64;128234;1095;113986;-83
2021/08/04 08:05:15;;;;;;;5.40;3.45;;;;;;;25.11;51.45;98207.07;128417;1094;25878;-84
2021/08/04 08:07:48;;;;;;;6.08;3.63;;;;;;;25.20;51.68;98209.33;128156;1095;113737;-83
2021/08/04 08:10:21;;;;;;;8.40;3.80;;;;;;;25.40;51.35;98215.00;128288;1095;113773;-86
2021/08/04 08:12:52;;;;;;;6.40;3.98;;;;;;;25.48;51.52;98219.23;128267;1095;113791;-82
2021/08/04 08:15:18;;;;;;;5.55;3.75;;;;;;;25.54;50.68;98217.56;128335;1095;114153;-82
2021/08/04 08:17:45;;;;;;;7.73;4.10;;;;;;;25.65;50.43;98207.19;128266;1095;113935;-83
2021/08/04 08:20:11;;;;;;;5.30;3.43;;;;;;;25.80;50.26;98209.80;128415;1095;22787;-82
2021/08/04 08:22:38;;;;;;;9.55;4.28;;;;;;;25.93;50.07;98208.02;128298;1095;113491;-83
2021/08/04 08:25:04;;;;;;;5.85;3.60;;;;;;;25.99;49.88;98209.13;128180;1095;114104;-82
2021/08/04 08:27:30;;;;;;;7.30;4.48;;;;;;;26.05;49.89;98217.70;128267;1095;113951;-83
2021/08/04 08:29:56;;;;;;;7.55;4.10;;;;;;;26.07;49.33;98207.05;128315;1095;112780;-81
2021/08/04 08:32:26;;;;;;;6.55;4.55;;;;;;;26.10;49.69;98211.73;128450;1096;22796;-81
2021/08/04 08:34:53;;;;;;;7.05;4.25;;;;;;;26.12;49.43;98220.36;128407;1096;112034;-82
2021/08/04 08:37:19;;;;;;;8.58;4.00;;;;;;;26.20;49.50;98210.78;128274;1096;113789;-82
2021/08/04 08:39:45;;;;;;;6.78;4.20;;;;;;;26.24;49.33;98217.02;128175;1096;113618;-82
2021/08/04 08:42:11;;;;;;;6.70;4.50;;;;;;;26.25;48.85;98218.58;128246;1096;114651;-82
2021/08/04 08:44:37;;;;;;;8.30;4.65;;;;;;;26.25;49.01;98210.30;128304;1096;113953;-84
2021/08/04 08:47:08;;;;;;;7.98;4.30;;;;;;;26.25;48.46;98215.81;128322;1095;22845;-83
2021/08/04 08:49:35;;;;;;;5.93;4.35;;;;;;;26.22;48.67;98211.16;128290;1095;113640;-83
2021/08/04 08:52:02;;;;;;;7.78;4.00;;;;;;;26.27;48.55;98212.66;128408;1096;114693;-83
2021/08/04 08:54:28;;;;;;;7.25;3.78;;;;;;;26.32;48.87;98212.17;128198;1096;113983;-83
2021/08/04 08:56:56;;;;;;;7.78;3.40;;;;;;;26.40;48.98;98219.14;128366;1095;113537;-83
2021/08/04 08:59:22;;;;;;;7.70;3.23;;;;;;;26.51;49.31;98214.26;128419;1095;22776;-82
2021/08/04 09:01:49;;;;;;;3.78;2.65;;;;;;;26.59;49.26;98215.70;128292;1096;113488;-83
2021/08/04 09:04:18;;;;;;;4.08;2.68;;;;;;;26.65;48.56;98213.25;128269;1095;113760;-82
2021/08/04 09:06:44;;;;;;;5.08;2.88;;;;;;;26.70;48.73;98215.52;128191;1096;113635;-82
2021/08/04 09:09:25;;;;;;;3.23;2.55;;;;;;;26.74;48.92;98207.95;128357;1096;114001;-83
2021/08/04 09:11:51;;;;;;;7.15;3.05;;;;;;;26.82;48.28;98209.38;128263;1095;114100;-83
2021/08/04 09:14:25;;;;;;;5.98;3.15;;;;;;;26.86;47.77;98210.09;128454;1096;26240;-83
2021/08/04 09:17:18;;;;;;;5.68;2.90;;;;;;;26.83;47.66;98207.40;128332;1095;113321;-82
2021/08/04 09:19:51;;;;;;;6.03;3.13;;;;;;;26.83;47.99;98207.40;128236;1095;113625;-82
2021/08/04 09:22:25;;;;;;;5.25;3.18;;;;;;;26.89;47.82;98214.02;128358;1095;113749;-82
2021/08/04 09:24:57;;;;;;;5.15;2.78;;;;;;;26.92;47.84;98199.36;128226;1096;113663;-82
2021/08/04 09:27:59;;;;;;;5.65;3.28;;;;;;;26.91;47.23;98195.79;128320;1096;113760;-83
2021/08/04 09:30:34;;;;;;;5.93;3.43;;;;;;;26.91;47.15;98204.08;128342;1094;113763;-85
2021/08/04 09:33:17;;;;;;;4.70;3.03;;;;;;;26.97;47.65;98204.39;128411;1095;114061;-86
2021/08/04 09:35:55;;;;;;;6.33;3.38;;;;;;;27.04;47.56;98201.50;128408;1095;113809;-84
2021/08/04 09:38:22;;;;;;;5.43;3.20;;;;;;;27.12;47.13;98205.70;128366;1095;24395;-84
2021/08/04 09:41:16;;;;;;;4.90;3.43;;;;;;;27.21;47.06;98204.36;128271;1096;113753;-84
2021/08/04 09:43:48;;;;;;;9.18;4.73;;;;;;;27.23;46.42;98205.48;128429;1096;113619;-84
2021/08/04 09:46:25;;;;;;;7.33;4.23;;;;;;;27.29;46.38;98200.25;128406;1095;113716;-84
2021/08/04 09:48:52;;;;;;;8.50;4.30;;;;;;;27.36;46.05;98202.88;128404;1096;113661;-84
2021/08/04 09:51:19;;;;;;;6.28;3.63;;;;;;;27.34;45.99;98200.52;128258;1095;113835;-84
2021/08/04 09:53:49;;;;;;;5.65;3.55;;;;;;;27.38;46.52;98205.98;128285;1096;113973;-84
2021/08/04 09:56:20;;;;;;;8.07;4.33;;;;;;;27.46;46.13;98203.85;128480;1096;22784;-84
2021/08/04 09:58:52;;;;;;;6.03;3.60;;;;;;;27.48;46.14;98204.22;128365;1096;113614;-84
2021/08/04 10:01:37;;;;;;;5.28;3.40;;;;;;;27.46;45.56;98201.86;128267;1095;113793;-84
2021/08/04 10:04:08;;;;;;;7.05;4.35;;;;;;;27.47;45.73;98213.70;128351;1095;113906;-83
2021/08/04 10:06:38;;;;;;;6.00;3.70;;;;;;;27.46;45.35;98204.63;128454;1095;113691;-86
2021/08/04 10:09:09;;;;;;;6.50;3.90;;;;;;;27.51;45.68;98208.88;128383;1096;113981;-88
2021/08/04 10:11:42;;;;;;;6.45;4.18;;;;;;;27.53;45.65;98203.71;128273;1095;113787;-88
2021/08/04 10:14:13;;;;;;;6.00;4.20;;;;;;;27.58;45.92;98206.73;128383;1095;22804;-87
2021/08/04 10:17:20;;;;;;;6.50;4.00;;;;;;;27.70;46.32;98204.53;128302;1095;113732;-88
2021/08/04 10:20:02;;;;;;;5.83;3.73;;;;;;;27.83;45.78;98214.55;128498;1095;113629;-89
2021/08/04 10:22:49;;;;;;;6.95;4.30;;;;;;;27.89;45.20;98204.52;128431;1096;22787;-88
2021/08/04 10:25:22;;;;;;;7.60;4.13;;;;;;;27.90;45.07;98194.22;128312;1095;113688;-88
2021/08/04 10:27:48;;;;;;;8.18;4.65;;;;;;;27.86;45.73;98191.56;128323;1096;114253;-86
2021/08/04 10:30:22;;;;;;;6.98;4.35;;;;;;;27.89;45.65;98206.51;128334;1095;113969;-87
2021/08/04 10:33:09;;;;;;;7.45;4.40;;;;;;;27.92;45.48;98202.11;128465;1096;113935;-88
2021/08/04 10:35:56;;;;;;;5.13;3.85;;;;;;;28.01;45.23;98191.22;128327;1095;113768;-88
2021/08/04 10:38:34;;;;;;;7.73;4.08;;;;;;;28.13;45.17;98196.84;128503;1096;114008;-86
2021/08/04 10:41:24;;;;;;;7.90;4.25;;;;;;;28.31;44.66;98184.59;128467;1095;22796;-86
2021/08/04 10:44:25;;;;;;;7.23;4.13;;;;;;;28.44;44.84;98193.77;128437;1095;113246;-86
2021/08/04 10:47:27;;;;;;;5.68;3.40;;;;;;;28.66;45.16;98176.63;128317;1096;114053;-87
2021/08/04 10:50:11;;;;;;;6.90;3.85;;;;;;;28.94;45.01;98198.03;128311;1096;25891;-85
2021/08/04 10:53:25;;;;;;;5.95;4.18;;;;;;;29.10;43.93;98197.23;128458;1096;113856;-86
2021/08/04 10:56:15;;;;;;;7.20;4.03;;;;;;;29.21;43.19;98205.27;128381;1096;113549;-86
2021/08/04 10:59:07;;;;;;;8.40;4.13;;;;;;;29.32;43.39;98197.44;128368;1095;113639;-87
2021/08/04 11:01:50;;;;;;;6.98;4.45;;;;;;;29.38;43.07;98194.88;128418;1096;113774;-87
2021/08/04 11:04:28;;;;;;;;;;;;;;;29.47;42.39;98187.45;128330;1096;114014;-83
2021/08/04 11:07:22;;;;;;;4.78;3.63;;;;;;;29.67;42.56;98189.30;128381;1096;100124;-84
2021/08/04 11:09:49;;;;;;;9.45;4.63;;;;;;;29.92;42.14;98197.66;128381;1096;113879;-86
2021/08/04 11:12:21;;;;;;;5.78;3.80;;;;;;;30.12;42.22;98194.66;128392;1094;113921;-85
2021/08/04 11:15:01;;;;;;;5.70;3.90;;;;;;;30.15;42.14;98187.44;128332;1096;113998;-86
2021/08/04 11:17:32;;;;;;;;;;;;;;;30.16;41.25;98191.80;128385;1096;114141;-85
2021/08/04 11:22:27;;;;;;;6.10;3.90;;;;;;;30.17;40.94;98182.23;128425;1095;113839;-84
2021/08/04 11:24:57;;;;;;;7.48;3.93;;;;;;;30.24;41.16;98182.78;128328;1095;113864;-85
2021/08/04 11:27:29;;;;;;;7.50;4.68;;;;;;;30.32;40.37;98181.32;128316;1096;114195;-85
2021/08/04 11:30:03;;;;;;;7.85;3.95;;;;;;;30.28;40.75;98175.11;128209;1096;114194;-87
2021/08/04 11:32:31;;;;;;;6.48;3.98;;;;;;;30.47;40.45;98180.86;128396;1095;113958;-86
2021/08/04 11:35:03;;;;;;;8.83;4.48;;;;;;;30.39;40.46;98180.32;128416;1095;22829;-86
2021/08/04 11:37:44;;;;;;;6.23;3.70;;;;;;;30.28;40.41;98177.89;128244;1096;113862;-88
2021/08/04 11:40:30;;;;;;;7.08;3.58;;;;;;;30.52;40.53;98167.16;128220;1095;113851;-85
2021/08/04 11:43:01;;;;;;;7.45;4.38;;;;;;;30.92;40.17;98171.39;128440;1096;114492;-87
2021/08/04 11:45:28;;;;;;;6.48;3.80;;;;;;;31.40;39.10;98164.52;128330;1095;113853;-87
2021/08/04 11:47:55;;;;;;;7.55;4.83;;;;;;;31.66;38.33;98178.24;128264;1095;114079;-86